Time;durP1;ratioP1;P1;durP2;ratioP2;P2;SDS_P1;SDS_P2;PMS_P1;PMS_P2;Temp;Humidity;BMP_temperature;BMP_pressure;BME280_temperature;BME280_humidity;BME280_pressure;Samples;Min_cycle;Max_cycle;Signal;HPM_P1;HPM_P2
2022/04/01 00:00:12;;;;;;;9.20;6.17;;;5.90;1.00;;;;;;5070254;28;20496;-56
2022/04/01 00:02:38;;;;;;;12.00;8.80;;;5.90;1.00;;;;;;5070268;28;20441;-56
2022/04/01 00:05:06;;;;;;;10.10;6.60;;;10.00;1.00;;;;;;5068925;28;20575;-57
2022/04/01 00:07:32;;;;;;;6.93;5.63;;;5.80;1.00;;;;;;5069223;28;20437;-57
2022/04/01 00:09:58;;;;;;;7.50;6.40;;;5.90;1.00;;;;;;5070318;28;20469;-56
2022/04/01 00:12:23;;;;;;;10.77;6.97;;;5.90;1.00;;;;;;5069813;28;20434;-56
2022/04/01 00:14:49;;;;;;;12.53;6.60;;;5.90;1.00;;;;;;5070200;28;20434;-57
2022/04/01 00:17:15;;;;;;;9.57;6.50;;;6.00;1.00;;;;;;5070182;28;20183;-58
2022/04/01 00:19:40;;;;;;;9.20;6.70;;;5.90;1.00;;;;;;5070117;28;20183;-57
2022/04/01 00:22:06;;;;;;;8.90;6.73;;;5.80;1.00;;;;;;5069574;28;20187;-56
2022/04/01 00:24:32;;;;;;;10.00;7.50;;;5.80;1.00;;;;;;5069617;28;20179;-57
2022/04/01 00:26:58;;;;;;;7.73;6.20;;;5.70;1.00;;;;;;5069527;28;20932;-57
2022/04/01 00:29:24;;;;;;;11.80;6.47;;;5.70;1.00;;;;;;5051665;28;20556;-56
2022/04/01 00:31:58;;;;;;;10.57;6.47;;;5.70;1.00;;;;;;5070223;28;20572;-56
2022/04/01 00:34:32;;;;;;;9.17;6.87;;;5.70;1.00;;;;;;5068770;28;20201;-55
2022/04/01 00:36:59;;;;;;;10.00;6.37;;;5.70;1.00;;;;;;5068249;28;20441;-58
2022/04/01 00:39:26;;;;;;;7.97;6.33;;;5.70;1.00;;;;;;5069688;28;20567;-56
2022/04/01 00:41:52;;;;;;;9.60;6.20;;;5.70;1.00;;;;;;5068376;28;20448;-58
2022/04/01 00:44:27;;;;;;;11.30;6.40;;;5.70;1.00;;;;;;5069002;28;20456;-58
2022/04/01 00:46:58;;;;;;;10.90;7.30;;;5.70;1.00;;;;;;5066440;28;20456;-57
2022/04/01 00:49:26;;;;;;;9.10;7.20;;;5.60;1.00;;;;;;5065597;28;20477;-58
2022/04/01 00:51:54;;;;;;;10.90;6.80;;;5.60;1.00;;;;;;5067794;28;20958;-56
2022/04/01 00:54:20;;;;;;;9.97;6.10;;;;;;;;;;5051317;28;20461;-56
2022/04/01 00:56:46;;;;;;;10.03;6.43;;;5.60;1.00;;;;;;5068025;28;20538;-56
2022/04/01 00:59:12;;;;;;;9.67;7.33;;;5.50;1.00;;;;;;5067235;28;20457;-56
2022/04/01 01:01:40;;;;;;;9.70;5.70;;;5.60;1.00;;;;;;5067749;28;20187;-58
2022/04/01 01:04:07;;;;;;;12.80;6.70;;;5.70;1.00;;;;;;5068183;28;20448;-55
2022/04/01 01:06:37;;;;;;;9.23;6.60;;;5.60;1.00;;;;;;5068191;28;20523;-56
2022/04/01 01:09:03;;;;;;;10.33;6.70;;;5.70;1.00;;;;;;5068857;28;20469;-56
2022/04/01 01:11:30;;;;;;;8.80;7.30;;;5.70;1.00;;;;;;5066275;28;20445;-56
2022/04/01 01:13:56;;;;;;;13.63;7.30;;;5.70;1.00;;;;;;5065659;28;20946;-56
2022/04/01 01:16:21;;;;;;;10.60;6.90;;;5.60;1.00;;;;;;5067830;28;20444;-55
2022/04/01 01:19:07;;;;;;;8.60;6.60;;;5.60;1.00;;;;;;5069050;28;20187;-55
2022/04/01 01:21:33;;;;;;;11.87;7.20;;;5.60;1.00;;;;;;5066967;28;20217;-56
2022/04/01 01:24:07;;;;;;;10.47;7.60;;;5.60;1.00;;;;;;5069200;28;20453;-54
2022/04/01 01:26:34;;;;;;;10.63;6.50;;;5.60;1.00;;;;;;5073190;28;20449;-56
2022/04/01 01:29:00;;;;;;;9.83;6.30;;;5.80;1.00;;;;;;5071232;28;20456;-55
2022/04/01 01:31:26;;;;;;;9.13;6.33;;;5.80;1.00;;;;;;5071607;28;20453;-56
2022/04/01 01:33:54;;;;;;;9.33;6.77;;;5.70;1.00;;;;;;5072281;28;20275;-56
2022/04/01 01:36:21;;;;;;;9.93;6.37;;;5.70;1.00;;;;;;5069644;28;20449;-57
2022/04/01 01:38:46;;;;;;;10.30;6.70;;;5.80;1.00;;;;;;5072081;28;20772;-57
2022/04/01 01:41:12;;;;;;;10.20;5.60;;;5.80;1.00;;;;;;5072646;28;20511;-57
2022/04/01 01:43:39;;;;;;;13.17;6.30;;;5.80;1.00;;;;;;5072433;28;20171;-56
2022/04/01 01:46:14;;;;;;;11.30;6.47;;;5.80;1.00;;;;;;5072152;28;20182;-55
2022/04/01 01:48:41;;;;;;;10.10;6.90;;;;;;;;;;5069694;28;20433;-57
2022/04/01 01:56:40;;;;;;;12.03;5.40;;;5.80;1.00;;;;;;5071214;28;20447;-57
2022/04/01 01:59:06;;;;;;;10.10;6.57;;;5.80;1.00;;;;;;5054410;28;20778;-56
2022/04/01 02:01:32;;;;;;;8.80;6.30;;;5.90;1.00;;;;;;5071465;28;20481;-56
2022/04/01 02:04:01;;;;;;;7.57;6.27;;;5.90;1.00;;;;;;5072246;28;20949;-56
2022/04/01 02:06:26;;;;;;;13.03;5.70;;;9.80;1.00;;;;;;5050639;28;20516;-55
2022/04/01 02:08:54;;;;;;;9.50;5.73;;;6.00;1.00;;;;;;5065637;28;20469;-55
2022/04/01 02:11:21;;;;;;;7.40;5.43;;;6.10;1.00;;;;;;5069165;28;20215;-55
2022/04/01 02:13:47;;;;;;;7.10;5.40;;;;;;;;;;5069093;28;20580;-56
2022/04/01 02:16:14;;;;;;;7.63;5.60;;;6.00;1.00;;;;;;5051396;28;20577;-57
2022/04/01 02:18:40;;;;;;;7.50;5.70;;;6.00;1.00;;;;;;5067573;28;20821;-56
2022/04/01 02:21:13;;;;;;;8.27;5.67;;;6.00;1.00;;;;;;5070377;28;20449;-57
2022/04/01 02:23:40;;;;;;;9.03;5.30;;;5.80;1.00;;;;;;5071713;28;20455;-56
2022/04/01 02:26:14;;;;;;;6.50;5.47;;;5.90;1.00;;;;;;5069884;28;20528;-57
2022/04/01 02:28:41;;;;;;;7.27;5.70;;;5.90;1.00;;;;;;5070539;28;20448;-57
2022/04/01 02:31:18;;;;;;;6.37;5.13;;;5.90;1.00;;;;;;5068688;28;20468;-56
2022/04/01 02:33:44;;;;;;;9.83;5.33;;;5.90;1.00;;;;;;5069263;28;20448;-56
2022/04/01 02:36:24;;;;;;;8.03;5.40;;;5.90;1.00;;;;;;5070834;28;20465;-57
2022/04/01 02:38:50;;;;;;;6.67;5.30;;;5.90;1.00;;;;;;5067563;28;20496;-57
2022/04/01 02:41:21;;;;;;;13.93;5.47;;;5.90;1.00;;;;;;5069103;28;20437;-55
2022/04/01 02:43:47;;;;;;;9.13;4.20;;;6.00;1.00;;;;;;5071465;28;20267;-55
2022/04/01 02:46:19;;;;;;;6.40;4.40;;;6.00;1.00;;;;;;5065311;28;20457;-56
2022/04/01 02:48:45;;;;;;;7.53;4.67;;;;;;;;;;5069644;28;20453;-55
2022/04/01 02:51:17;;;;;;;6.23;4.80;;;5.90;1.00;;;;;;5068423;28;21000;-58
2022/04/01 02:53:42;;;;;;;5.97;4.20;;;5.80;1.00;;;;;;5068246;28;20445;-56
2022/04/01 02:56:17;;;;;;;6.93;4.47;;;5.80;1.00;;;;;;5066157;28;20477;-56
2022/04/01 02:58:42;;;;;;;7.47;4.20;;;5.90;1.00;;;;;;5053531;28;20221;-56
2022/04/01 03:01:20;;;;;;;6.33;4.30;;;5.70;1.00;;;;;;5069637;28;20939;-56
2022/04/01 03:03:46;;;;;;;5.63;3.77;;;5.70;1.00;;;;;;5067581;28;20264;-57
2022/04/01 03:06:16;;;;;;;6.80;3.90;;;5.70;1.00;;;;;;5067765;28;20445;-56
2022/04/01 03:08:43;;;;;;;8.50;4.20;;;5.70;1.00;;;;;;5070235;28;20226;-58
2022/04/01 03:11:20;;;;;;;6.77;3.40;;;5.70;1.00;;;;;;5069340;28;20971;-56
2022/04/01 03:13:46;;;;;;;5.23;3.53;;;5.80;1.00;;;;;;5068846;28;20457;-56
2022/04/01 03:16:15;;;;;;;6.70;3.80;;;5.70;1.00;;;;;;5067903;28;20535;-55
2022/04/01 03:18:41;;;;;;;6.00;3.67;;;;;;;;;;5069399;28;20290;-55
2022/04/01 03:21:20;;;;;;;7.77;3.47;;;5.60;1.00;;;;;;5068746;28;20541;-57
2022/04/01 03:23:47;;;;;;;5.00;3.57;;;5.50;1.00;;;;;;5068921;28;20986;-56
2022/04/01 03:26:16;;;;;;;3.30;2.63;;;5.50;1.00;;;;;;5070617;28;20530;-58
2022/04/01 03:28:41;;;;;;;7.60;3.80;;;5.40;1.00;;;;;;5069157;28;20450;-58
2022/04/01 03:31:19;;;;;;;5.70;3.97;;;5.30;1.00;;;;;;5070058;28;20474;-56
2022/04/01 03:33:45;;;;;;;7.50;3.87;;;5.30;1.00;;;;;;5067750;28;20184;-56
2022/04/01 03:36:25;;;;;;;7.33;3.80;;;5.30;1.00;;;;;;5068290;28;20438;-57
2022/04/01 03:38:52;;;;;;;5.20;3.50;;;5.40;1.00;;;;;;5067880;28;20187;-57
2022/04/01 03:41:19;;;;;;;5.97;3.63;;;5.40;1.00;;;;;;5065180;28;20458;-55
2022/04/01 03:43:45;;;;;;;8.17;3.90;;;5.40;1.00;;;;;;5068317;28;20449;-57
2022/04/01 03:46:24;;;;;;;6.17;3.60;;;5.20;1.00;;;;;;5066978;28;21020;-55
2022/04/01 03:49:07;;;;;;;4.43;3.13;;;5.10;1.00;;;;;;5065774;28;20273;-56
2022/04/01 03:51:36;;;;;;;5.30;4.03;;;5.10;1.00;;;;;;5062062;28;20464;-55
2022/04/01 03:54:05;;;;;;;10.73;4.20;;;5.10;1.00;;;;;;5064722;28;20819;-58
2022/04/01 03:56:36;;;;;;;11.23;3.50;;;5.10;1.00;;;;;;5066929;28;20957;-56
2022/04/01 03:59:05;;;;;;;7.20;4.60;;;5.00;1.00;;;;;;5070381;28;20437;-55
2022/04/01 04:01:31;;;;;;;5.03;3.73;;;5.00;1.00;;;;;;5065639;28;20512;-56
2022/04/01 04:03:57;;;;;;;5.40;3.50;;;4.90;1.00;;;;;;5071157;28;20513;-55
2022/04/01 04:06:26;;;;;;;3.90;3.40;;;4.90;1.00;;;;;;5068787;28;20517;-58
2022/04/01 04:08:57;;;;;;;7.37;3.67;;;5.00;1.00;;;;;;5069672;28;20581;-56
2022/04/01 04:11:31;;;;;;;6.73;4.70;;;5.00;1.00;;;;;;5070365;28;20461;-56
2022/04/01 04:13:59;;;;;;;9.80;4.40;;;5.00;1.00;;;;;;5046628;28;20444;-54
2022/04/01 04:16:44;;;;;;;4.33;3.57;;;5.10;1.00;;;;;;5069342;28;20507;-57
2022/04/01 04:19:26;;;;;;;4.43;3.37;;;5.10;1.00;;;;;;5067805;28;20744;-57
2022/04/01 04:22:14;;;;;;;7.47;4.50;;;5.20;1.00;;;;;;5068868;28;20769;-55
2022/04/01 04:24:49;;;;;;;6.40;4.50;;;5.20;1.00;;;;;;5066612;28;20441;-56
2022/04/01 04:27:17;;;;;;;3.50;3.00;;;5.30;1.00;;;;;;5068425;28;20549;-57
2022/04/01 04:29:51;;;;;;;7.90;4.30;;;4.90;1.00;;;;;;5070264;28;20457;-56
2022/04/01 04:32:31;;;;;;;4.67;3.70;;;4.70;1.00;;;;;;5070354;28;20503;-59
2022/04/01 04:34:57;;;;;;;4.60;4.07;;;;;;;;;;5070465;28;20503;-57
2022/04/01 04:37:27;;;;;;;7.60;4.67;;;4.60;1.00;;;;;;5067869;28;20426;-58
2022/04/01 04:39:53;;;;;;;7.30;4.00;;;4.60;1.00;;;;;;5070422;28;20434;-59
2022/04/01 04:42:21;;;;;;;7.90;4.33;;;4.80;1.00;;;;;;5070618;28;20870;-56
2022/04/01 04:44:49;;;;;;;10.47;4.10;;;4.80;1.00;;;;;;5070291;28;20441;-59
2022/04/01 04:47:18;;;;;;;6.50;3.90;;;4.90;1.00;;;;;;5068845;28;20480;-58
2022/04/01 04:49:47;;;;;;;7.47;4.90;;;4.90;1.00;;;;;;5068887;28;20489;-57
2022/04/01 04:52:14;;;;;;;8.90;5.17;;;4.90;1.00;;;;;;5070664;28;20525;-58
2022/04/01 04:54:40;;;;;;;7.97;3.90;;;;;;;;;;5069347;28;20444;-57
2022/04/01 04:57:06;;;;;;;6.60;4.40;;;5.00;1.00;;;;;;5070498;28;20430;-58
2022/04/01 04:59:34;;;;;;;8.43;3.90;;;5.00;1.00;;;;;;5071290;28;20969;-56
2022/04/01 05:02:00;;;;;;;6.77;4.17;;;4.90;1.00;;;;;;5074522;28;20784;-58
2022/04/01 05:04:55;;;;;;;5.20;4.50;;;4.80;1.00;;;;;;5077351;28;20449;-57
2022/04/01 05:07:40;;;;;;;5.80;3.80;;;4.60;1.00;;;;;;5068210;28;20187;-56
2022/04/01 05:10:12;;;;;;;6.53;4.53;;;4.60;1.00;;;;;;5071463;28;20473;-57
2022/04/01 05:12:57;;;;;;;7.43;4.87;;;4.60;1.00;;;;;;5071607;28;20434;-57
2022/04/01 05:15:31;;;;;;;4.60;3.30;;;4.00;1.00;;;;;;5054928;28;20524;-59
2022/04/01 05:18:02;;;;;;;9.03;4.20;;;4.00;1.00;;;;;;5072243;28;20448;-57
2022/04/01 05:20:29;;;;;;;9.97;4.50;;;4.10;1.00;;;;;;5071863;28;20533;-56
2022/04/01 05:23:02;;;;;;;7.40;5.07;;;4.10;1.00;;;;;;5073492;28;20440;-56
2022/04/01 05:25:30;;;;;;;7.50;5.20;;;4.10;1.00;;;;;;5075123;28;20512;-58
2022/04/01 05:28:01;;;;;;;7.77;4.30;;;4.20;1.00;;;;;;5076504;28;20520;-56
2022/04/01 05:30:30;;;;;;;8.50;5.47;;;4.20;1.00;;;;;;5072325;28;20965;-57
2022/04/01 05:32:58;;;;;;;7.70;5.17;;;4.10;1.00;;;;;;5072175;28;20943;-57
2022/04/01 05:35:29;;;;;;;9.47;5.70;;;4.00;1.00;;;;;;5071004;28;20487;-57
2022/04/01 05:37:57;;;;;;;9.20;5.03;;;4.00;1.00;;;;;;5077556;28;20437;-57
2022/04/01 05:40:22;;;;;;;8.13;5.53;;;3.90;1.00;;;;;;5072040;28;20442;-59
2022/04/01 05:42:50;;;;;;;6.93;6.10;;;3.90;1.00;;;;;;5072008;28;20452;-58
2022/04/01 05:45:17;;;;;;;5.83;3.73;;;3.80;1.00;;;;;;5074449;28;20187;-57
2022/04/01 05:47:44;;;;;;;7.40;5.40;;;3.80;1.00;;;;;;5074063;28;20441;-58
2022/04/01 05:50:10;;;;;;;6.90;4.77;;;;;;;;;;5076962;28;20461;-58
2022/04/01 05:52:37;;;;;;;6.40;5.30;;;3.80;1.00;;;;;;5071171;28;20445;-56
2022/04/01 05:55:03;;;;;;;9.10;5.83;;;3.80;1.00;;;;;;5074236;28;20425;-56
2022/04/01 05:57:29;;;;;;;8.30;5.77;;;3.90;1.00;;;;;;5074315;28;21158;-57
2022/04/01 05:59:54;;;;;;;6.00;4.60;;;4.00;1.00;;;;;;5072097;28;20433;-56
2022/04/01 06:02:36;;;;;;;7.23;5.33;;;3.90;1.00;;;;;;5074424;28;20218;-56
2022/04/01 06:05:41;;;;;;;6.80;5.10;;;4.00;1.00;;;;;;5071318;28;20270;-58
2022/04/01 06:08:23;;;;;;;9.73;6.43;;;4.10;1.00;;;;;;5071375;28;20437;-56
2022/04/01 06:10:57;;;;;;;7.70;5.47;;;4.20;1.00;;;;;;5030892;28;21027;-56
2022/04/01 06:13:23;;;;;;;7.63;4.97;;;;;;;;;;5034414;28;20447;-56
2022/04/01 06:16:41;;;;;;;6.93;6.00;;;4.10;1.00;;;;;;5034076;28;20924;-57
2022/04/01 06:19:30;;;;;;;8.43;6.20;;;3.90;1.00;;;;;;4995926;28;20448;-57
2022/04/01 06:22:03;;;;;;;7.13;4.97;;;4.00;1.00;;;;;;4992542;28;20619;-59
2022/04/01 06:24:43;;;;;;;10.50;6.70;;;4.00;1.00;;;;;;5019319;28;20447;-57
2022/04/01 06:27:12;;;;;;;8.00;6.50;;;4.00;1.00;;;;;;5034020;28;20431;-58
2022/04/01 06:29:43;;;;;;;8.53;6.20;;;4.00;1.00;;;;;;5032762;28;20854;-59
2022/04/01 06:32:26;;;;;;;10.33;6.03;;;4.10;1.00;;;;;;5033823;28;20917;-58
2022/04/01 06:35:04;;;;;;;7.57;5.70;;;4.10;1.00;;;;;;5027609;28;20518;-57
2022/04/01 06:37:35;;;;;;;8.30;5.80;;;4.10;1.00;;;;;;5031445;28;20475;-59
2022/04/01 06:40:10;;;;;;;9.87;6.60;;;4.20;1.00;;;;;;5033783;28;20446;-58
2022/04/01 06:42:37;;;;;;;10.60;7.17;;;4.20;1.00;;;;;;5032522;28;20522;-57
2022/04/01 06:45:08;;;;;;;8.60;7.20;;;4.20;1.00;;;;;;5033466;28;20968;-59
2022/04/01 06:47:35;;;;;;;6.87;6.17;;;;;;;;;;5031774;28;20431;-56
2022/04/01 06:50:00;;;;;;;12.00;6.57;;;4.20;1.00;;;;;;5032591;28;20593;-57
2022/04/01 06:52:26;;;;;;;11.67;8.53;;;4.10;1.00;;;;;;5033673;28;21000;-58
2022/04/01 06:54:53;;;;;;;7.40;6.10;;;4.00;1.00;;;;;;5032799;28;20582;-57
2022/04/01 06:57:19;;;;;;;10.40;7.53;;;4.10;1.00;;;;;;5033190;28;20439;-55
2022/04/01 06:59:45;;;;;;;14.23;7.77;;;4.30;1.00;;;;;;5033430;28;20458;-57
2022/04/01 07:02:11;;;;;;;8.47;7.57;;;4.20;1.00;;;;;;5036637;28;20461;-59
2022/04/01 07:04:37;;;;;;;11.07;7.67;;;;;;;;;;5032990;28;20180;-57
2022/04/01 07:07:03;;;;;;;7.27;6.63;;;3.90;1.00;;;;;;5033248;28;20443;-58
2022/04/01 07:09:29;;;;;;;8.53;7.63;;;;;;;;;;5053799;28;20465;-58
2022/04/01 07:11:59;;;;;;;3.83;3.30;;;3.80;1.00;;;;;;5072192;28;20849;-58
2022/04/01 07:14:27;;;;;;;7.80;5.33;;;3.50;1.00;;;;;;5072770;28;20935;-56
2022/04/01 07:16:55;;;;;;;9.80;6.00;;;3.30;1.00;;;;;;5072605;28;20811;-59
2022/04/01 07:19:21;;;;;;;6.97;5.40;;;3.40;1.00;;;;;;5073874;28;20460;-57
2022/04/01 07:21:47;;;;;;;9.57;6.40;;;3.50;1.00;;;;;;5055123;28;20487;-59
2022/04/01 07:24:12;;;;;;;8.83;7.20;;;3.70;1.00;;;;;;5072387;28;20607;-57
2022/04/01 07:26:51;;;;;;;8.17;6.40;;;3.70;1.00;;;;;;5072738;28;20568;-57
2022/04/01 07:29:16;;;;;;;8.40;5.60;;;3.80;1.00;;;;;;5071757;28;20183;-58
2022/04/01 07:34:38;;;;;;;7.17;5.70;;;3.70;1.00;;;;;;5070293;28;20194;-59
2022/04/01 07:37:07;;;;;;;7.27;5.10;;;3.70;1.00;;;;;;5072926;28;21928;-56
2022/04/01 07:39:33;;;;;;;8.03;6.93;;;3.60;1.00;;;;;;5048667;28;20927;-58
2022/04/01 07:41:58;;;;;;;8.50;5.60;;;3.60;1.00;;;;;;5071550;28;20449;-58
2022/04/01 07:44:24;;;;;;;8.77;5.73;;;;;;;;;;5071492;28;20176;-59
2022/04/01 07:46:51;;;;;;;7.20;6.07;;;3.60;1.00;;;;;;5054068;28;20216;-57
2022/04/01 07:49:17;;;;;;;7.83;7.03;;;3.70;1.00;;;;;;5071194;28;20444;-58
2022/04/01 07:51:46;;;;;;;7.23;6.50;;;3.70;1.00;;;;;;5071330;28;20946;-59
2022/04/01 07:54:15;;;;;;;7.60;5.63;;;3.70;1.00;;;;;;5071537;28;20433;-58
2022/04/01 07:56:42;;;;;;;8.47;6.13;;;3.60;1.00;;;;;;5070607;28;20461;-56
2022/04/01 07:59:15;;;;;;;7.23;6.10;;;3.60;1.00;;;;;;5068769;28;20426;-56
2022/04/01 08:01:41;;;;;;;11.53;7.80;;;3.70;1.00;;;;;;5070988;28;20491;-57
2022/04/01 08:04:07;;;;;;;7.10;5.90;;;3.60;1.00;;;;;;5058245;28;20437;-56
2022/04/01 08:06:45;;;;;;;8.03;6.10;;;3.60;1.00;;;;;;5070613;28;20983;-57
2022/04/01 08:09:10;;;;;;;8.67;5.37;;;3.50;1.00;;;;;;5070796;28;20219;-55
2022/04/01 08:11:42;;;;;;;8.27;5.90;;;3.50;1.00;;;;;;5067609;28;20980;-55
2022/04/01 08:14:08;;;;;;;6.80;6.10;;;;;;;;;;5071377;28;20182;-55
2022/04/01 08:16:33;;;;;;;10.37;7.47;;;3.60;1.00;;;;;;5070246;28;20425;-55
2022/04/01 08:18:59;;;;;;;10.70;6.80;;;3.70;1.00;;;;;;5070383;28;20471;-55
2022/04/01 08:21:37;;;;;;;7.30;6.60;;;3.70;1.00;;;;;;5069515;28;20191;-55
2022/04/01 08:24:03;;;;;;;7.63;6.70;;;3.80;1.00;;;;;;5052767;28;20187;-58
2022/04/01 08:26:43;;;;;;;8.53;7.50;;;4.10;1.00;;;;;;5071117;28;20567;-57
2022/04/01 08:29:09;;;;;;;10.13;7.70;;;4.00;1.00;;;;;;5071201;28;20446;-57
2022/04/01 08:31:40;;;;;;;8.57;7.30;;;4.10;1.00;;;;;;5069508;28;20468;-55
2022/04/01 08:34:06;;;;;;;11.27;7.70;;;4.20;1.00;;;;;;5066508;28;20184;-55
2022/04/01 08:36:31;;;;;;;9.83;8.83;;;4.30;1.00;;;;;;5070969;28;20476;-56
2022/04/01 08:38:57;;;;;;;11.33;9.57;;;4.30;1.00;;;;;;5070868;28;20183;-55
2022/04/01 08:41:32;;;;;;;11.47;8.87;;;4.30;1.00;;;;;;5071140;28;20261;-56
2022/04/01 08:43:57;;;;;;;11.10;8.53;;;4.50;1.00;;;;;;5070448;28;20644;-56
2022/04/01 08:46:30;;;;;;;10.40;9.30;;;4.00;1.00;;;;;;5070673;28;20533;-58
2022/04/01 08:48:55;;;;;;;13.30;9.80;;;3.80;1.00;;;;;;5070675;28;20724;-58
2022/04/01 08:51:22;;;;;;;13.57;10.00;;;3.90;1.00;;;;;;5071414;28;20552;-55
2022/04/01 08:53:48;;;;;;;12.73;10.83;;;4.10;1.00;;;;;;5070577;28;20222;-57
2022/04/01 08:56:20;;;;;;;13.50;9.93;;;4.30;1.00;;;;;;5070501;28;20449;-56
2022/04/01 08:58:47;;;;;;;12.73;9.70;;;4.40;1.00;;;;;;5070737;28;20438;-56
2022/04/01 09:01:18;;;;;;;12.60;10.50;;;4.50;1.00;;;;;;5070621;28;20430;-57
2022/04/01 09:03:44;;;;;;;12.50;11.17;;;;;;;;;;5069327;28;20557;-56
2022/04/01 09:06:40;;;;;;;12.07;9.20;;;5.10;1.00;;;;;;5069532;28;20441;-57
2022/04/01 09:09:06;;;;;;;11.43;9.53;;;;;;;;;;5069128;28;20473;-56
2022/04/01 09:11:31;;;;;;;10.93;9.83;;;5.10;1.00;;;;;;5070509;28;20572;-56
2022/04/01 09:13:58;;;;;;;12.13;9.00;;;5.20;1.00;;;;;;5069931;28;20477;-56
2022/04/01 09:16:32;;;;;;;11.07;7.97;;;5.00;1.00;;;;;;5069535;28;20184;-55
2022/04/01 09:19:00;;;;;;;8.73;7.83;;;5.00;1.00;;;;;;5067792;28;20520;-57
2022/04/01 09:21:39;;;;;;;8.60;6.93;;;5.00;1.00;;;;;;5069370;28;20520;-56
2022/04/01 09:24:06;;;;;;;10.90;6.63;;;4.90;1.00;;;;;;5070547;28;20515;-56
2022/04/01 09:26:37;;;;;;;9.27;7.20;;;4.80;1.00;;;;;;5068174;28;20441;-57
2022/04/01 09:29:05;;;;;;;10.57;7.13;;;4.80;1.00;;;;;;5068833;28;20450;-55
2022/04/01 09:31:33;;;;;;;10.20;6.60;;;4.60;1.00;;;;;;5067261;28;20464;-57
2022/04/01 09:33:59;;;;;;;11.23;6.40;;;4.60;1.00;;;;;;5069299;28;20453;-56
2022/04/01 09:36:33;;;;;;;12.53;7.27;;;4.50;1.00;;;;;;5069484;28;20536;-57
2022/04/01 09:39:02;;;;;;;10.17;6.07;;;4.60;1.00;;;;;;5069728;28;20441;-55
2022/04/01 09:41:34;;;;;;;11.03;6.33;;;4.80;1.00;;;;;;5069329;28;20455;-55
2022/04/01 09:44:05;;;;;;;10.80;7.80;;;5.00;1.00;;;;;;5068361;28;20734;-56
2022/04/01 09:46:31;;;;;;;13.83;8.17;;;5.30;1.00;;;;;;5070238;28;20445;-56
2022/04/01 09:48:59;;;;;;;13.20;8.80;;;5.20;1.00;;;;;;5072986;28;20526;-56
2022/04/01 09:51:33;;;;;;;9.83;7.57;;;5.20;1.00;;;;;;5070717;28;20208;-56
2022/04/01 09:54:03;;;;;;;6.50;5.60;;;5.00;1.00;;;;;;5072883;28;20448;-55
2022/04/01 09:56:56;;;;;;;11.63;8.43;;;4.70;1.00;;;;;;5073608;28;21090;-56
2022/04/01 09:59:23;;;;;;;9.43;6.37;;;4.40;1.00;;;;;;5063381;28;20450;-56
2022/04/01 10:01:49;;;;;;;11.30;6.73;;;4.60;1.00;;;;;;5073325;28;20445;-55
2022/04/01 10:04:15;;;;;;;9.47;6.67;;;4.60;1.00;;;;;;5077998;28;20491;-58
2022/04/01 10:06:41;;;;;;;10.83;6.53;;;4.80;1.00;;;;;;5074336;28;20440;-57
2022/04/01 10:09:11;;;;;;;12.80;7.00;;;4.80;1.00;;;;;;5066655;28;20725;-57
2022/04/01 10:11:39;;;;;;;7.70;6.90;;;5.10;1.00;;;;;;5072659;28;20469;-57
2022/04/01 10:14:28;;;;;;;12.30;6.80;;;5.20;1.00;;;;;;5073005;28;20863;-57
2022/04/01 10:17:00;;;;;;;9.60;6.47;;;5.10;1.00;;;;;;5070705;28;20442;-57
2022/04/01 10:19:30;;;;;;;13.80;7.57;;;5.00;1.00;;;;;;5068002;28;20442;-58
2022/04/01 10:21:56;;;;;;;11.27;7.60;;;5.20;1.00;;;;;;5074363;28;20437;-59
2022/04/01 10:24:38;;;;;;;10.50;5.53;;;5.10;1.00;;;;;;5074599;28;20914;-58
2022/04/01 10:27:03;;;;;;;8.47;6.17;;;5.10;1.00;;;;;;5070841;28;20791;-57
2022/04/01 10:29:30;;;;;;;8.80;7.23;;;5.20;1.00;;;;;;5069800;28;20438;-56
2022/04/01 10:32:29;;;;;;;8.67;6.47;;;5.40;1.00;;;;;;5069431;28;20175;-58
2022/04/01 10:34:58;;;;;;;6.90;5.40;;;5.60;1.00;;;;;;5069884;28;20437;-57
2022/04/01 10:37:25;;;;;;;11.83;6.10;;;5.60;1.00;;;;;;5071024;28;20446;-55
2022/04/01 10:40:05;;;;;;;9.27;5.80;;;5.60;1.00;;;;;;5071227;28;20965;-56
2022/04/01 10:42:36;;;;;;;8.50;6.47;;;5.70;1.00;;;;;;5051917;28;20453;-57
2022/04/01 10:45:08;;;;;;;8.63;6.60;;;5.80;1.00;;;;;;5071785;28;20433;-58
2022/04/01 10:53:45;;;;;;;12.13;6.37;;;5.80;1.00;;;;;;5070838;28;20444;-58
2022/04/01 10:56:23;;;;;;;8.63;5.67;;;;;;;;;;5070544;28;20456;-56
2022/04/01 10:59:12;;;;;;;6.93;6.23;;;5.40;1.00;;;;;;5067495;28;20433;-56
2022/04/01 11:01:37;;;;;;;8.20;7.03;;;5.30;1.00;;;;;;5070566;28;20483;-55
2022/04/01 11:04:11;;;;;;;7.53;5.50;;;5.20;1.00;;;;;;5069583;28;20469;-58
2022/04/01 11:06:57;;;;;;;11.60;6.30;;;5.30;1.00;;;;;;5071264;28;20179;-59
2022/04/01 11:09:45;;;;;;;7.60;5.90;;;5.30;1.00;;;;;;5069884;28;20894;-58
2022/04/01 11:12:19;;;;;;;7.03;5.60;;;5.20;1.00;;;;;;5068894;28;20540;-59
2022/04/01 11:14:53;;;;;;;6.90;5.77;;;5.00;1.00;;;;;;5068237;28;20979;-56
2022/04/01 11:17:46;;;;;;;6.67;5.23;;;4.80;1.00;;;;;;5072736;28;20441;-56
2022/04/01 11:20:13;;;;;;;9.40;5.90;;;4.70;1.00;;;;;;5071110;28;20442;-58
2022/04/01 11:22:54;;;;;;;8.47;6.60;;;4.80;1.00;;;;;;5071521;28;20487;-58
2022/04/01 11:25:22;;;;;;;9.43;6.73;;;4.80;1.00;;;;;;5071367;28;20444;-61
2022/04/01 11:27:50;;;;;;;9.43;6.53;;;4.90;1.00;;;;;;5071295;28;20792;-58
2022/04/01 11:30:18;;;;;;;9.63;6.90;;;5.00;1.00;;;;;;5069835;28;20465;-57
2022/04/01 11:32:52;;;;;;;8.40;5.83;;;5.10;1.00;;;;;;5071194;28;20524;-55
2022/04/01 11:35:21;;;;;;;8.00;5.90;;;5.10;1.00;;;;;;5074083;28;20437;-56
2022/04/01 11:37:47;;;;;;;8.33;5.60;;;5.20;1.00;;;;;;5072145;28;20946;-58
2022/04/01 11:40:16;;;;;;;7.27;6.00;;;5.30;1.00;;;;;;5071059;28;20839;-58
2022/04/01 11:43:07;;;;;;;10.30;5.60;;;5.40;1.00;;;;;;5070709;28;20450;-59
2022/04/01 11:45:43;;;;;;;10.93;6.07;;;5.50;1.00;;;;;;5068196;28;20446;-58
2022/04/01 11:48:18;;;;;;;6.13;5.37;;;5.50;1.00;;;;;;5073281;28;20579;-57
2022/04/01 11:50:51;;;;;;;7.60;5.60;;;5.50;1.00;;;;;;5070694;28;20519;-57
2022/04/01 11:53:22;;;;;;;5.90;5.27;;;5.20;1.00;;;;;;5070514;28;20575;-56
2022/04/01 11:55:48;;;;;;;7.80;6.00;;;5.80;1.00;;;;;;5070546;28;20967;-57
2022/04/01 11:58:14;;;;;;;6.63;4.50;;;5.90;1.00;;;;;;5070646;28;20484;-57
2022/04/01 12:00:40;;;;;;;7.80;5.53;;;5.90;1.00;;;;;;5069549;28;20449;-56
2022/04/01 12:03:08;;;;;;;7.70;5.70;;;5.90;1.00;;;;;;5070746;28;20176;-57
2022/04/01 12:05:34;;;;;;;7.03;5.43;;;5.80;1.00;;;;;;5070759;28;20252;-58
2022/04/01 12:10:53;;;;;;;8.33;6.17;;;5.90;1.00;;;;;;5070791;28;20321;-56
2022/04/01 12:13:18;;;;;;;5.57;4.80;;;6.10;1.00;;;;;;5070644;28;20579;-58
2022/04/01 12:15:49;;;;;;;6.80;4.93;;;6.10;1.00;;;;;;5068773;28;20517;-57
2022/04/01 12:18:16;;;;;;;7.30;6.60;;;6.40;1.00;;;;;;5068736;28;20598;-56
2022/04/01 12:20:47;;;;;;;5.90;4.83;;;6.30;1.00;;;;;;5070468;28;20440;-57
2022/04/01 12:23:13;;;;;;;8.47;5.70;;;6.30;1.00;;;;;;5070152;28;20548;-58
2022/04/01 12:25:40;;;;;;;7.83;5.33;;;6.60;1.00;;;;;;5070012;28;20438;-58
2022/04/01 12:28:08;;;;;;;7.03;5.20;;;6.90;1.00;;;;;;5069863;28;20603;-58
2022/04/01 12:30:45;;;;;;;7.43;5.47;;;7.10;1.00;;;;;;5070465;28;20918;-57
2022/04/01 12:33:21;;;;;;;8.77;5.07;;;7.30;1.00;;;;;;5067890;28;20454;-60
2022/04/01 12:36:05;;;;;;;6.90;5.10;;;7.50;1.00;;;;;;5070007;28;20587;-55
2022/04/01 12:38:33;;;;;;;12.97;4.70;;;7.50;1.00;;;;;;5069740;28;20430;-56
2022/04/01 12:41:02;;;;;;;11.47;6.30;;;7.50;1.00;;;;;;5070270;28;20520;-56
2022/04/01 12:43:46;;;;;;;6.10;5.20;;;7.50;1.00;;;;;;5072808;28;20445;-56
2022/04/01 12:46:23;;;;;;;5.20;4.37;;;7.50;1.00;;;;;;5070637;28;20429;-57
2022/04/01 12:48:49;;;;;;;7.73;5.50;;;7.50;1.00;;;;;;5068090;28;21012;-57
2022/04/01 12:51:35;;;;;;;10.27;4.70;;;7.50;1.00;;;;;;5070014;28;20519;-58
2022/04/01 12:54:12;;;;;;;7.00;4.80;;;7.50;1.00;;;;;;5069969;28;20850;-55
2022/04/01 12:56:38;;;;;;;7.60;5.40;;;7.50;1.00;;;;;;5069390;28;20976;-56
2022/04/01 12:59:08;;;;;;;7.90;4.93;;;7.80;1.00;;;;;;5069854;28;20434;-55
2022/04/01 13:01:36;;;;;;;8.07;4.77;;;7.90;1.00;;;;;;5069597;28;20190;-56
2022/04/01 13:04:02;;;;;;;7.60;5.30;;;7.80;1.00;;;;;;5049138;28;20771;-57
2022/04/01 13:06:29;;;;;;;8.20;5.30;;;7.70;1.00;;;;;;5069532;28;20833;-57
2022/04/01 13:09:07;;;;;;;7.90;5.70;;;7.50;1.00;;;;;;5050387;28;20468;-62
2022/04/01 13:11:38;;;;;;;10.43;4.57;;;7.40;1.00;;;;;;5070024;28;20914;-56
2022/04/01 13:14:21;;;;;;;6.00;4.40;;;7.50;1.00;;;;;;5067497;28;20491;-56
2022/04/01 13:16:48;;;;;;;10.00;5.00;;;7.70;1.00;;;;;;5069661;28;20434;-57
2022/04/01 13:19:30;;;;;;;6.43;5.20;;;7.80;1.00;;;;;;5051510;28;20445;-56
2022/04/01 13:22:01;;;;;;;6.87;4.87;;;7.90;1.00;;;;;;5072473;28;20448;-57
2022/04/01 13:24:39;;;;;;;5.73;4.20;;;8.10;1.00;;;;;;5073475;28;20574;-57
2022/04/01 13:27:06;;;;;;;5.73;4.60;;;8.00;1.00;;;;;;5073534;28;20512;-57
2022/04/01 13:29:32;;;;;;;12.23;6.17;;;8.20;1.00;;;;;;5073392;28;20429;-58
2022/04/01 13:31:58;;;;;;;11.20;4.50;;;8.30;1.00;;;;;;5073220;28;20403;-56
2022/04/01 13:34:23;;;;;;;6.17;4.03;;;8.30;1.00;;;;;;5078248;28;20182;-58
2022/04/01 13:36:49;;;;;;;5.53;4.13;;;8.30;1.00;;;;;;5073170;28;20556;-57
2022/04/01 13:39:16;;;;;;;8.20;6.37;;;8.20;1.00;;;;;;5073587;28;20184;-57
2022/04/01 13:41:42;;;;;;;5.67;4.60;;;8.30;1.00;;;;;;5073181;28;20800;-57
2022/04/01 13:44:07;;;;;;;6.93;4.43;;;8.60;1.00;;;;;;5073164;28;20444;-57